Time,TemperatureF,DewpointF,PressureIn,WindDirection,WindDirectionDegrees,WindSpeedMPH,WindSpeedGustMPH,Humidity,HourlyPrecipIn,Conditions,Clouds,dailyrainin,SolarRadiationWatts/m^2,SoftwareType,DateUTC
2013-04-18 00:00:00,32.0,30.0,-100.00,NNE,25,5.0,9.0,94,0.00,,,0.00,0.000000,,2013-04-18 05:00:00,
2013-04-18 00:22:00,32.0,30.0,-100.00,NNE,25,5.0,9.0,94,0.00,,,0.00,0.000000,,2013-04-18 05:22:00,
2013-04-18 00:33:00,32.0,30.0,-100.00,NNE,25,5.0,9.0,94,0.00,,,0.00,0.000000,,2013-04-18 05:33:00,
2013-04-18 00:42:00,32.0,30.0,-100.00,NNE,25,5.0,9.0,94,0.00,,,0.00,0.000000,,2013-04-18 05:42:00,
2013-04-18 00:52:00,32.0,30.0,-100.00,NNE,25,5.0,9.0,94,0.00,,,0.00,0.000000,,2013-04-18 05:52:00,
2013-04-18 01:00:00,32.0,31.0,-100.00,NE,42,8.0,14.0,96,0.00,,,0.00,0.000000,,2013-04-18 06:00:00,
2013-04-18 01:32:00,32.0,31.0,-100.00,NE,42,8.0,14.0,96,0.00,,,0.00,0.000000,,2013-04-18 06:32:00,
2013-04-18 01:42:00,32.0,31.0,-100.00,NE,42,8.0,14.0,96,0.00,,,0.00,0.000000,,2013-04-18 06:42:00,
2013-04-18 01:52:00,32.0,31.0,-100.00,NE,42,8.0,14.0,96,0.00,,,0.00,0.000000,,2013-04-18 06:52:00,
2013-04-18 02:00:00,32.0,30.0,-100.00,NNE,18,5.0,15.0,94,0.00,,,0.00,0.000000,,2013-04-18 07:00:00,
2013-04-18 02:32:00,32.0,30.0,-100.00,NNE,18,5.0,15.0,94,0.00,,,0.00,0.000000,,2013-04-18 07:32:00,
2013-04-18 02:42:00,32.0,30.0,-100.00,NNE,18,5.0,15.0,94,0.00,,,0.00,0.000000,,2013-04-18 07:42:00,
2013-04-18 02:52:00,32.0,30.0,-100.00,NNE,18,5.0,15.0,94,0.00,,,0.00,0.000000,,2013-04-18 07:52:00,
2013-04-18 03:00:00,32.0,31.0,-100.00,NNE,26,7.0,13.0,95,0.00,,,0.00,0.000000,,2013-04-18 08:00:00,
2013-04-18 03:32:00,32.0,31.0,-100.00,NNE,26,7.0,13.0,95,0.00,,,0.00,0.000000,,2013-04-18 08:32:00,
2013-04-18 03:42:00,32.0,31.0,-100.00,NNE,26,7.0,13.0,95,0.00,,,0.00,0.000000,,2013-04-18 08:42:00,
2013-04-18 03:52:00,32.0,31.0,-100.00,NNE,26,7.0,13.0,95,0.00,,,0.00,0.000000,,2013-04-18 08:52:00,
2013-04-18 04:00:00,32.0,30.0,-100.00,NNE,16,7.0,12.0,94,0.00,,,0.00,0.000000,,2013-04-18 09:00:00,
2013-04-18 04:22:00,32.0,30.0,-100.00,NNE,16,7.0,12.0,94,0.00,,,0.00,0.000000,,2013-04-18 09:22:00,
2013-04-18 04:33:00,32.0,30.0,-100.00,NNE,16,7.0,12.0,94,0.00,,,0.00,0.000000,,2013-04-18 09:33:00,
2013-04-18 04:43:00,32.0,30.0,-100.00,NNE,16,7.0,12.0,94,0.00,,,0.00,0.000000,,2013-04-18 09:43:00,
2013-04-18 04:53:00,32.0,30.0,-100.00,NNE,16,7.0,12.0,94,0.00,,,0.00,0.000000,,2013-04-18 09:53:00,
2013-04-18 05:00:00,32.0,31.0,-100.00,NNE,15,5.0,11.0,95,0.03,,,0.03,0.000000,,2013-04-18 10:00:00,
2013-04-18 05:33:00,32.0,31.0,-100.00,NNE,15,5.0,11.0,95,0.03,,,0.03,0.000000,,2013-04-18 10:33:00,
2013-04-18 05:42:00,32.0,31.0,-100.00,NNE,15,5.0,11.0,95,0.03,,,0.03,0.000000,,2013-04-18 10:42:00,
2013-04-18 05:52:00,32.0,31.0,-100.00,NNE,15,5.0,11.0,95,0.03,,,0.03,0.000000,,2013-04-18 10:52:00,
2013-04-18 06:00:00,32.0,31.0,-100.00,North,11,4.0,10.0,96,0.01,,,0.04,0.000000,,2013-04-18 11:00:00,
2013-04-18 06:32:00,32.0,31.0,-100.00,North,11,4.0,10.0,96,0.01,,,0.04,0.000000,,2013-04-18 11:32:00,
2013-04-18 06:42:00,32.0,31.0,-100.00,North,11,4.0,10.0,96,0.01,,,0.04,0.000000,,2013-04-18 11:42:00,
2013-04-18 06:52:00,32.0,31.0,-100.00,North,11,4.0,10.0,96,0.01,,,0.04,0.000000,,2013-04-18 11:52:00,
2013-04-18 07:00:00,32.0,31.0,-100.00,North,1,4.0,9.0,96,0.02,,,0.06,3.000000,,2013-04-18 12:00:00,
2013-04-18 07:32:00,32.0,31.0,-100.00,North,1,4.0,9.0,96,0.02,,,0.06,3.000000,,2013-04-18 12:32:00,
2013-04-18 07:42:00,32.0,31.0,-100.00,North,1,4.0,9.0,96,0.02,,,0.06,3.000000,,2013-04-18 12:42:00,
2013-04-18 07:52:00,32.0,31.0,-100.00,North,1,4.0,9.0,96,0.02,,,0.06,3.000000,,2013-04-18 12:52:00,
2013-04-18 08:00:00,32.0,31.0,-100.00,North,355,5.0,10.0,95,0.02,,,0.08,27.000000,,2013-04-18 13:00:00,
2013-04-18 08:33:00,32.0,31.0,-100.00,North,355,5.0,10.0,95,0.02,,,0.08,27.000000,,2013-04-18 13:33:00,
2013-04-18 08:42:00,32.0,31.0,-100.00,North,355,5.0,10.0,95,0.02,,,0.08,27.000000,,2013-04-18 13:42:00,
2013-04-18 08:53:00,32.0,31.0,-100.00,North,355,5.0,10.0,95,0.02,,,0.08,27.000000,,2013-04-18 13:53:00,
2013-04-18 09:00:00,33.0,31.0,-100.00,NNE,20,7.0,12.0,94,0.02,,,0.10,65.000000,,2013-04-18 14:00:00,
2013-04-18 09:22:00,33.0,31.0,-100.00,NNE,20,7.0,12.0,94,0.02,,,0.10,65.000000,,2013-04-18 14:22:00,
2013-04-18 09:33:00,33.0,31.0,-100.00,NNE,20,7.0,12.0,94,0.02,,,0.10,65.000000,,2013-04-18 14:33:00,
2013-04-18 09:43:00,33.0,31.0,-100.00,NNE,20,7.0,12.0,94,0.02,,,0.10,65.000000,,2013-04-18 14:43:00,
2013-04-18 09:52:00,33.0,31.0,-100.00,NNE,20,7.0,12.0,94,0.02,,,0.10,65.000000,,2013-04-18 14:52:00,
2013-04-18 10:00:00,33.0,31.0,-100.00,NNE,18,9.0,18.0,93,0.03,,,0.13,113.000000,,2013-04-18 15:00:00,
2013-04-18 10:33:00,33.0,31.0,-100.00,NNE,18,9.0,18.0,93,0.03,,,0.13,113.000000,,2013-04-18 15:33:00,
2013-04-18 10:43:00,33.0,31.0,-100.00,NNE,18,9.0,18.0,93,0.03,,,0.13,113.000000,,2013-04-18 15:43:00,
2013-04-18 10:53:00,33.0,31.0,-100.00,NNE,18,9.0,18.0,93,0.03,,,0.13,113.000000,,2013-04-18 15:53:00,
2013-04-18 11:00:00,32.0,30.0,-100.00,North,1,8.0,15.0,94,0.01,,,0.14,79.000000,,2013-04-18 16:00:00,
2013-04-18 11:33:00,32.0,30.0,-100.00,North,1,8.0,15.0,94,0.01,,,0.14,79.000000,,2013-04-18 16:33:00,
2013-04-18 11:43:00,32.0,30.0,-100.00,North,1,8.0,15.0,94,0.01,,,0.14,79.000000,,2013-04-18 16:43:00,
2013-04-18 11:53:00,32.0,30.0,-100.00,North,1,8.0,15.0,94,0.01,,,0.14,79.000000,,2013-04-18 16:53:00,
2013-04-18 12:00:00,32.0,31.0,-100.00,North,7,9.0,17.0,96,0.02,,,0.16,109.000000,,2013-04-18 17:00:00,
2013-04-18 12:33:00,32.0,31.0,-100.00,North,7,9.0,17.0,96,0.02,,,0.16,109.000000,,2013-04-18 17:33:00,
2013-04-18 12:43:00,32.0,31.0,-100.00,North,7,9.0,17.0,96,0.02,,,0.16,109.000000,,2013-04-18 17:43:00,
2013-04-18 12:52:00,32.0,31.0,-100.00,North,7,9.0,17.0,96,0.02,,,0.16,109.000000,,2013-04-18 17:52:00,
2013-04-18 13:00:00,33.0,31.0,-100.00,NNE,20,7.0,19.0,93,0.00,,,0.16,147.000000,,2013-04-18 18:00:00,
2013-04-18 13:33:00,33.0,31.0,-100.00,NNE,20,7.0,19.0,93,0.00,,,0.16,147.000000,,2013-04-18 18:33:00,
2013-04-18 13:43:00,33.0,31.0,-100.00,NNE,20,7.0,19.0,93,0.00,,,0.16,147.000000,,2013-04-18 18:43:00,
2013-04-18 13:52:00,33.0,31.0,-100.00,NNE,20,7.0,19.0,93,0.00,,,0.16,147.000000,,2013-04-18 18:52:00,
2013-04-18 14:00:00,33.0,30.0,-100.00,NNE,16,8.0,17.0,90,0.00,,,0.16,172.000000,,2013-04-18 19:00:00,
2013-04-18 14:33:00,33.0,30.0,-100.00,NNE,16,8.0,17.0,90,0.00,,,0.16,172.000000,,2013-04-18 19:33:00,
2013-04-18 14:42:00,33.0,30.0,-100.00,NNE,16,8.0,17.0,90,0.00,,,0.16,172.000000,,2013-04-18 19:42:00,
2013-04-18 14:53:00,33.0,30.0,-100.00,NNE,16,8.0,17.0,90,0.00,,,0.16,172.000000,,2013-04-18 19:53:00,
2013-04-18 15:00:00,32.0,30.0,-100.00,NNE,26,7.0,16.0,92,0.02,,,0.18,109.000000,,2013-04-18 20:00:00,
2013-04-18 15:32:00,32.0,30.0,-100.00,NNE,26,7.0,16.0,92,0.02,,,0.18,109.000000,,2013-04-18 20:32:00,
2013-04-18 15:42:00,32.0,30.0,-100.00,NNE,26,7.0,16.0,92,0.02,,,0.18,109.000000,,2013-04-18 20:42:00,
2013-04-18 15:52:00,32.0,30.0,-100.00,NNE,26,7.0,16.0,92,0.02,,,0.18,109.000000,,2013-04-18 20:52:00,
2013-04-18 16:00:00,32.0,30.0,-100.00,NNE,17,7.0,15.0,93,0.02,,,0.20,84.000000,,2013-04-18 21:00:00,
2013-04-18 16:22:00,32.0,30.0,-100.00,NNE,17,7.0,15.0,93,0.02,,,0.20,84.000000,,2013-04-18 21:22:00,
2013-04-18 16:33:00,32.0,30.0,-100.00,NNE,17,7.0,15.0,93,0.02,,,0.20,84.000000,,2013-04-18 21:33:00,
2013-04-18 16:43:00,32.0,30.0,-100.00,NNE,17,7.0,15.0,93,0.02,,,0.20,84.000000,,2013-04-18 21:43:00,
2013-04-18 16:53:00,32.0,30.0,-100.00,NNE,17,7.0,15.0,93,0.02,,,0.20,84.000000,,2013-04-18 21:53:00,
2013-04-18 17:00:00,31.0,29.0,-100.00,North,10,8.0,17.0,93,0.01,,,0.21,52.000000,,2013-04-18 22:00:00,
2013-04-18 17:23:00,31.0,29.0,-100.00,North,10,8.0,17.0,93,0.01,,,0.21,52.000000,,2013-04-18 22:23:00,
2013-04-18 17:33:00,31.0,29.0,-100.00,North,10,8.0,17.0,93,0.01,,,0.21,52.000000,,2013-04-18 22:33:00,
2013-04-18 17:42:00,31.0,29.0,-100.00,North,10,8.0,17.0,93,0.01,,,0.21,52.000000,,2013-04-18 22:42:00,
2013-04-18 17:52:00,31.0,29.0,-100.00,North,10,8.0,17.0,93,0.01,,,0.21,52.000000,,2013-04-18 22:52:00,
2013-04-18 18:00:00,31.0,29.0,-100.00,NNE,18,8.0,18.0,94,0.01,,,0.22,52.000000,,2013-04-18 23:00:00,
2013-04-18 18:32:00,31.0,29.0,-100.00,NNE,18,8.0,18.0,94,0.01,,,0.22,52.000000,,2013-04-18 23:32:00,
2013-04-18 18:42:00,31.0,29.0,-100.00,NNE,18,8.0,18.0,94,0.01,,,0.22,52.000000,,2013-04-18 23:42:00,
2013-04-18 18:52:00,31.0,29.0,-100.00,NNE,18,8.0,18.0,94,0.01,,,0.22,52.000000,,2013-04-18 23:52:00,
2013-04-18 19:00:00,31.0,29.0,-100.00,North,4,8.0,16.0,94,0.00,,,0.22,32.000000,,2013-04-19 00:00:00,
2013-04-18 19:32:00,31.0,29.0,-100.00,North,4,8.0,16.0,94,0.00,,,0.22,32.000000,,2013-04-19 00:32:00,
2013-04-18 19:42:00,31.0,29.0,-100.00,North,4,8.0,16.0,94,0.00,,,0.22,32.000000,,2013-04-19 00:42:00,
2013-04-18 19:52:00,31.0,29.0,-100.00,North,4,8.0,16.0,94,0.00,,,0.22,32.000000,,2013-04-19 00:52:00,
2013-04-18 20:00:00,30.0,28.0,-100.00,North,359,9.0,21.0,94,0.00,,,0.22,8.000000,,2013-04-19 01:00:00,
2013-04-18 20:32:00,30.0,28.0,-100.00,North,359,9.0,21.0,94,0.00,,,0.22,8.000000,,2013-04-19 01:32:00,
2013-04-18 20:42:00,30.0,28.0,-100.00,North,359,9.0,21.0,94,0.00,,,0.22,8.000000,,2013-04-19 01:42:00,
2013-04-18 20:52:00,30.0,28.0,-100.00,North,359,9.0,21.0,94,0.00,,,0.22,8.000000,,2013-04-19 01:52:00,
2013-04-18 21:00:00,29.0,27.0,-100.00,North,10,9.0,21.0,94,0.00,,,0.22,0.000000,,2013-04-19 02:00:00,
2013-04-18 21:21:00,29.0,27.0,-100.00,North,10,9.0,21.0,94,0.00,,,0.22,0.000000,,2013-04-19 02:21:00,
2013-04-18 21:32:00,29.0,27.0,-100.00,North,10,9.0,21.0,94,0.00,,,0.22,0.000000,,2013-04-19 02:32:00,
2013-04-18 21:42:00,29.0,27.0,-100.00,North,10,9.0,21.0,94,0.00,,,0.22,0.000000,,2013-04-19 02:42:00,
2013-04-18 21:52:00,29.0,27.0,-100.00,North,10,9.0,21.0,94,0.00,,,0.22,0.000000,,2013-04-19 02:52:00,
2013-04-18 22:00:00,29.0,27.0,-100.00,North,8,10.0,20.0,94,0.00,,,0.22,0.000000,,2013-04-19 03:00:00,
2013-04-18 22:33:00,29.0,27.0,-100.00,North,8,10.0,20.0,94,0.00,,,0.22,0.000000,,2013-04-19 03:33:00,
2013-04-18 22:43:00,29.0,27.0,-100.00,North,8,10.0,20.0,94,0.00,,,0.22,0.000000,,2013-04-19 03:43:00,
2013-04-18 22:53:00,29.0,27.0,-100.00,North,8,10.0,20.0,94,0.00,,,0.22,0.000000,,2013-04-19 03:53:00,
2013-04-18 23:00:00,29.0,27.0,-100.00,North,11,10.0,19.0,94,0.00,,,0.22,0.000000,,2013-04-19 04:00:00,
2013-04-18 23:33:00,29.0,27.0,-100.00,North,11,10.0,19.0,94,0.00,,,0.22,0.000000,,2013-04-19 04:33:00,
2013-04-18 23:43:00,29.0,27.0,-100.00,North,11,10.0,19.0,94,0.00,,,0.22,0.000000,,2013-04-19 04:43:00,
2013-04-18 23:52:00,29.0,27.0,-100.00,North,11,10.0,19.0,94,0.00,,,0.22,0.000000,,2013-04-19 04:52:00,